createdAt,value
2019-02-22T00:01:19.811Z,20.34
2019-02-22T00:03:51.495Z,20.32
2019-02-22T00:06:23.181Z,20.24
2019-02-22T00:08:54.512Z,20.30
2019-02-22T00:11:25.982Z,20.30
2019-02-22T00:13:57.706Z,20.12
2019-02-22T00:16:29.591Z,20.40
2019-02-22T00:19:01.044Z,20.31
2019-02-22T00:21:33.043Z,20.06
2019-02-22T00:24:04.911Z,20.18
2019-02-22T00:26:36.571Z,20.21
2019-02-22T00:29:08.236Z,20.22
2019-02-22T00:31:40.143Z,20.12
2019-02-22T00:34:11.805Z,20.15
2019-02-22T00:36:43.639Z,20.22
2019-02-22T00:39:15.285Z,20.01
2019-02-22T00:41:46.945Z,20.20
2019-02-22T00:44:18.693Z,20.22
2019-02-22T00:46:50.416Z,20.22
2019-02-22T00:49:22.219Z,20.10
2019-02-22T00:51:53.928Z,20.08
2019-02-22T00:54:25.581Z,20.08
2019-02-22T00:56:57.815Z,19.96
2019-02-22T00:59:29.842Z,19.96
2019-02-22T01:02:02.025Z,20.01
2019-02-22T01:04:34.179Z,19.81
2019-02-22T01:07:06.086Z,20.02
2019-02-22T01:09:37.916Z,20.02
2019-02-22T01:12:09.755Z,20.00
2019-02-22T01:14:41.703Z,20.13
2019-02-22T01:17:13.927Z,20.13
2019-02-22T01:19:45.693Z,20.09
2019-02-22T01:22:18.679Z,20.02
2019-02-22T01:24:50.397Z,20.02
2019-02-22T01:27:23.321Z,19.99
2019-02-22T01:29:55.049Z,20.17
2019-02-22T01:32:26.736Z,20.05
2019-02-22T01:34:58.655Z,20.09
2019-02-22T01:37:30.407Z,20.09
2019-02-22T01:40:02.011Z,20.14
2019-02-22T01:42:33.535Z,20.11
2019-02-22T01:45:05.400Z,20.09
2019-02-22T01:47:37.240Z,20.08
2019-02-22T01:50:08.998Z,20.13
2019-02-22T01:52:40.540Z,20.13
2019-02-22T01:55:11.967Z,20.14
2019-02-22T01:57:43.866Z,20.26
2019-02-22T02:00:15.718Z,20.16
2019-02-22T02:02:47.637Z,20.21
2019-02-22T02:05:19.556Z,20.21
2019-02-22T02:07:51.412Z,20.29
2019-02-22T02:10:23.022Z,20.29
2019-02-22T02:12:54.639Z,20.14
2019-02-22T02:15:26.471Z,20.31
2019-02-22T02:17:58.229Z,20.26
2019-02-22T02:20:30.049Z,20.26
2019-02-22T02:23:01.628Z,20.27
2019-02-22T02:25:33.533Z,20.27
2019-02-22T02:28:05.327Z,20.38
2019-02-22T02:30:36.985Z,20.45
2019-02-22T02:33:08.685Z,20.56
2019-02-22T02:35:40.943Z,20.46
2019-02-22T02:38:12.554Z,20.65
2019-02-22T02:40:44.373Z,20.71
2019-02-22T02:43:16.119Z,20.55
2019-02-22T02:45:47.972Z,20.73
2019-02-22T02:48:19.935Z,20.73
2019-02-22T02:50:51.544Z,21.66
2019-02-22T02:53:23.327Z,21.52
2019-02-22T02:55:55.077Z,21.52
2019-02-22T02:58:26.559Z,21.76
2019-02-22T03:00:58.083Z,21.71
2019-02-22T03:03:29.926Z,21.78
2019-02-22T03:06:20.438Z,21.71
2019-02-22T03:08:52.372Z,21.81
2019-02-22T03:11:31.494Z,21.89
2019-02-22T03:14:04.732Z,21.89
2019-02-22T03:16:38.645Z,21.94
2019-02-22T03:19:10.384Z,21.94
2019-02-22T03:21:42.492Z,21.81
2019-02-22T03:24:14.095Z,21.95
2019-02-22T03:26:45.987Z,21.92
2019-02-22T03:29:17.689Z,22.04
2019-02-22T03:31:50.165Z,21.57
2019-02-22T03:34:21.866Z,21.96
2019-02-22T03:36:54.127Z,21.79
2019-02-22T03:39:25.892Z,22.03
2019-02-22T03:41:57.731Z,22.07
2019-02-22T03:44:29.400Z,22.07
2019-02-22T03:47:04.014Z,21.83
2019-02-22T03:49:36.189Z,22.09
2019-02-22T03:52:30.116Z,22.09
2019-02-22T03:55:01.875Z,22.10
2019-02-22T03:57:33.542Z,22.18
2019-02-22T04:00:05.372Z,22.18
2019-02-22T04:02:37.558Z,22.20
2019-02-22T04:05:09.765Z,22.26
2019-02-22T04:07:41.412Z,22.33
2019-02-22T04:10:13.115Z,22.20
2019-02-22T04:12:44.904Z,22.25
2019-02-22T04:15:16.569Z,22.13
2019-02-22T04:17:48.272Z,22.36
2019-02-22T04:20:19.980Z,22.39
2019-02-22T04:22:51.952Z,22.34
2019-02-22T04:25:23.627Z,22.44
2019-02-22T04:27:55.365Z,22.43
2019-02-22T04:30:28.046Z,22.46
2019-02-22T04:32:59.456Z,22.58
2019-02-22T04:35:31.798Z,22.68
2019-02-22T04:38:03.447Z,22.66
2019-02-22T04:40:35.341Z,22.60
2019-02-22T04:43:08.375Z,22.63
2019-02-22T04:45:41.694Z,22.80
2019-02-22T04:48:14.534Z,22.80
2019-02-22T04:50:46.188Z,22.85
2019-02-22T04:53:18.058Z,22.84
2019-02-22T04:55:49.703Z,22.84
2019-02-22T04:58:21.340Z,22.85
2019-02-22T05:00:52.932Z,22.94
2019-02-22T05:03:24.592Z,22.94
2019-02-22T05:05:56.312Z,23.03
2019-02-22T05:08:28.718Z,22.98
2019-02-22T05:11:00.000Z,23.15
2019-02-22T05:13:31.749Z,23.25
2019-02-22T05:16:03.984Z,23.12
2019-02-22T05:18:35.897Z,23.12
2019-02-22T05:21:07.697Z,23.19
2019-02-22T05:23:39.253Z,23.29
2019-02-22T05:26:10.570Z,23.29
2019-02-22T05:28:42.304Z,23.01
2019-02-22T05:31:14.238Z,23.01
2019-02-22T05:33:45.711Z,23.03
2019-02-22T05:36:18.331Z,23.03
2019-02-22T05:38:49.965Z,23.21
2019-02-22T05:41:21.739Z,23.21
2019-02-22T05:43:54.529Z,23.26
2019-02-22T05:46:27.289Z,23.14
2019-02-22T05:48:59.026Z,23.37
2019-02-22T05:51:31.095Z,23.21
2019-02-22T05:54:02.918Z,23.17
2019-02-22T05:56:34.619Z,22.95
2019-02-22T05:59:06.528Z,22.95
2019-02-22T06:01:43.624Z,23.20
2019-02-22T06:04:15.607Z,23.44
2019-02-22T06:06:47.547Z,23.44
2019-02-22T06:09:19.215Z,23.53
2019-02-22T06:11:50.910Z,23.58
2019-02-22T06:14:22.350Z,23.73
2019-02-22T06:16:53.817Z,23.65
2019-02-22T06:19:25.177Z,23.65
2019-02-22T06:21:56.417Z,23.69
2019-02-22T06:24:28.335Z,23.66
2019-02-22T06:27:00.018Z,23.68
2019-02-22T06:29:31.433Z,23.51
2019-02-22T06:32:03.667Z,23.71
2019-02-22T06:34:35.451Z,23.74
2019-02-22T06:37:07.126Z,23.58
2019-02-22T06:39:38.944Z,23.70
2019-02-22T06:42:10.617Z,23.58
2019-02-22T06:44:42.501Z,23.58
2019-02-22T06:47:14.228Z,23.53
2019-02-22T06:49:45.731Z,23.56
2019-02-22T06:52:17.385Z,23.56
2019-02-22T06:54:48.997Z,23.76
2019-02-22T06:57:21.009Z,23.72
2019-02-22T06:59:52.274Z,23.74
2019-02-22T07:02:24.175Z,23.82
2019-02-22T07:04:55.740Z,23.88
2019-02-22T07:07:27.387Z,23.76
2019-02-22T07:09:59.209Z,23.89
2019-02-22T07:12:37.589Z,23.98
2019-02-22T07:15:09.451Z,23.96
2019-02-22T07:17:41.518Z,24.10
2019-02-22T07:20:13.461Z,24.07
2019-02-22T07:22:45.089Z,23.93
2019-02-22T07:25:16.719Z,23.73
2019-02-22T07:27:48.197Z,24.14
2019-02-22T07:30:19.736Z,24.14
2019-02-22T07:32:51.188Z,24.10
2019-02-22T07:35:22.792Z,24.05
2019-02-22T07:37:54.059Z,24.05
2019-02-22T07:40:25.563Z,24.19
2019-02-22T07:43:07.533Z,24.20
2019-02-22T07:45:30.321Z,24.20
2019-02-22T07:48:01.906Z,24.17
2019-02-22T07:50:33.721Z,24.17
2019-02-22T07:53:05.225Z,24.20
2019-02-22T07:55:36.815Z,24.08
2019-02-22T07:58:08.808Z,24.32
2019-02-22T08:00:40.249Z,24.32
2019-02-22T08:03:11.757Z,24.36
2019-02-22T08:05:43.535Z,24.25
2019-02-22T08:08:16.236Z,24.37
2019-02-22T08:10:47.936Z,24.43
2019-02-22T08:13:20.261Z,24.37
2019-02-22T08:15:51.980Z,24.69
2019-02-22T08:18:23.510Z,24.69
2019-02-22T08:20:55.082Z,24.42
2019-02-22T08:23:26.706Z,24.42
2019-02-22T08:25:58.609Z,24.47
2019-02-22T08:28:30.043Z,24.26
2019-02-22T08:31:01.989Z,24.27
2019-02-22T08:33:33.503Z,24.61
2019-02-22T08:36:05.298Z,24.61
2019-02-22T08:38:36.858Z,24.40
2019-02-22T08:41:10.274Z,24.56
2019-02-22T08:43:43.032Z,24.47
2019-02-22T08:46:14.855Z,24.42
2019-02-22T08:48:47.049Z,24.56
2019-02-22T08:51:18.840Z,24.56
2019-02-22T08:53:55.736Z,24.69
2019-02-22T08:56:31.994Z,24.65
2019-02-22T08:59:03.590Z,24.72
2019-02-22T09:01:35.817Z,24.66
2019-02-22T09:04:07.344Z,24.69
2019-02-22T09:06:38.927Z,24.69
2019-02-22T09:09:10.450Z,24.58
2019-02-22T09:11:59.357Z,24.39
2019-02-22T09:14:49.565Z,24.45
2019-02-22T09:17:21.065Z,24.49
2019-02-22T09:19:52.858Z,24.29
2019-02-22T09:22:24.376Z,24.29
2019-02-22T09:24:56.052Z,24.51
2019-02-22T09:27:27.705Z,24.46
2019-02-22T09:29:59.575Z,24.50
2019-02-22T09:32:32.151Z,24.65
2019-02-22T09:35:03.868Z,24.69
2019-02-22T09:37:35.265Z,24.69
2019-02-22T09:40:07.500Z,24.63
2019-02-22T09:42:39.289Z,24.64
2019-02-22T09:45:11.600Z,24.64
2019-02-22T09:47:43.072Z,24.55
2019-02-22T09:50:14.911Z,24.58
2019-02-22T09:52:46.395Z,24.64
2019-02-22T09:55:19.689Z,24.59
2019-02-22T09:57:51.175Z,24.59
2019-02-22T10:00:22.795Z,24.57
2019-02-22T10:02:54.499Z,24.61
2019-02-22T10:05:26.129Z,24.66
2019-02-22T10:07:57.566Z,24.66
2019-02-22T10:10:29.290Z,24.76
2019-02-22T10:13:00.830Z,24.64
2019-02-22T10:15:32.528Z,24.64
2019-02-22T10:18:04.044Z,24.65
2019-02-22T10:20:35.597Z,24.62
2019-02-22T10:23:07.452Z,24.55
2019-02-22T10:25:39.749Z,24.55
2019-02-22T10:28:17.688Z,24.68
2019-02-22T10:30:44.853Z,24.69
2019-02-22T10:33:16.232Z,24.73
2019-02-22T10:35:48.001Z,24.73
2019-02-22T10:38:19.668Z,24.79
2019-02-22T10:40:51.653Z,24.71
2019-02-22T10:43:23.293Z,24.61
2019-02-22T10:45:55.021Z,24.60
2019-02-22T10:48:26.486Z,24.60
2019-02-22T10:50:59.466Z,24.49
2019-02-22T10:53:31.370Z,24.56
2019-02-22T10:56:03.036Z,24.46
2019-02-22T10:58:34.658Z,24.52
2019-02-22T11:01:06.746Z,24.52
2019-02-22T11:03:38.363Z,24.34
2019-02-22T11:06:10.061Z,24.40
2019-02-22T11:08:41.767Z,24.35
2019-02-22T11:11:13.359Z,24.40
2019-02-22T11:13:44.820Z,24.42
2019-02-22T11:16:16.426Z,24.44
2019-02-22T11:18:48.811Z,24.44
2019-02-22T11:21:20.196Z,24.37
2019-02-22T11:23:51.910Z,24.32
2019-02-22T11:26:23.493Z,24.33
2019-02-22T11:28:54.955Z,24.32
2019-02-22T11:31:26.540Z,24.37
2019-02-22T11:33:58.048Z,24.21
2019-02-22T11:36:29.821Z,24.25
2019-02-22T11:39:01.526Z,24.17
2019-02-22T11:41:34.803Z,24.12
2019-02-22T11:44:06.498Z,24.12
2019-02-22T11:46:37.986Z,24.09
2019-02-22T11:49:10.405Z,24.09
2019-02-22T11:51:42.080Z,24.09
2019-02-22T11:54:13.721Z,23.88
2019-02-22T11:56:45.688Z,24.00
2019-02-22T11:59:17.661Z,24.05
2019-02-22T12:01:49.521Z,23.97
2019-02-22T12:04:21.166Z,23.97
2019-02-22T12:06:52.785Z,23.90
2019-02-22T12:09:24.778Z,23.91
2019-02-22T12:11:56.373Z,23.74
2019-02-22T12:14:27.971Z,23.71
2019-02-22T12:16:59.459Z,23.71
2019-02-22T12:19:31.010Z,23.80
2019-02-22T12:22:02.565Z,23.95
2019-02-22T12:24:34.182Z,23.95
2019-02-22T12:27:05.887Z,23.98
2019-02-22T12:29:37.792Z,23.88
2019-02-22T12:32:09.433Z,23.88
2019-02-22T12:34:41.125Z,23.46
2019-02-22T12:37:12.816Z,23.98
2019-02-22T12:39:44.194Z,23.67
2019-02-22T12:42:18.115Z,23.81
2019-02-22T12:45:02.492Z,23.83
2019-02-22T12:47:30.666Z,23.79
2019-02-22T12:50:02.244Z,23.79
2019-02-22T12:52:34.383Z,23.79
2019-02-22T12:55:06.741Z,23.52
2019-02-22T12:57:38.578Z,23.65
2019-02-22T13:00:13.342Z,23.65
2019-02-22T13:02:45.182Z,23.96
2019-02-22T13:05:17.612Z,23.63
2019-02-22T13:07:52.408Z,23.84
2019-02-22T13:10:28.126Z,23.50
2019-02-22T13:12:59.911Z,23.50
2019-02-22T13:15:31.456Z,23.50
2019-02-22T13:18:03.205Z,23.59
2019-02-22T13:20:34.877Z,23.29
2019-02-22T13:23:06.618Z,23.69
2019-02-22T13:25:38.026Z,23.69
2019-02-22T13:28:09.547Z,23.77
2019-02-22T13:30:41.169Z,23.39
2019-02-22T13:33:12.632Z,23.68
2019-02-22T13:35:44.265Z,23.47
2019-02-22T13:38:15.791Z,23.71
2019-02-22T13:40:49.207Z,23.71
2019-02-22T13:43:21.068Z,23.58
2019-02-22T13:45:52.948Z,23.49
2019-02-22T13:48:25.054Z,23.49
2019-02-22T13:50:56.721Z,23.54
2019-02-22T13:53:28.981Z,23.45
2019-02-22T13:56:00.510Z,23.39
2019-02-22T13:58:32.261Z,23.51
2019-02-22T14:01:04.243Z,23.53
2019-02-22T14:03:35.834Z,23.33
2019-02-22T14:06:07.650Z,23.33
2019-02-22T14:08:39.306Z,23.44
2019-02-22T14:11:16.926Z,23.50
2019-02-22T14:13:52.284Z,23.52
2019-02-22T14:16:27.568Z,23.45
2019-02-22T14:18:58.968Z,23.44
2019-02-22T14:21:30.586Z,23.31
2019-02-22T14:24:02.070Z,23.33
2019-02-22T14:26:33.829Z,23.35
2019-02-22T14:29:05.387Z,23.33
2019-02-22T14:31:36.907Z,23.32
2019-02-22T14:34:08.573Z,23.41
2019-02-22T14:36:40.315Z,23.19
2019-02-22T14:39:12.337Z,23.19
2019-02-22T14:41:44.133Z,23.33
2019-02-22T14:44:15.740Z,23.36
2019-02-22T14:46:47.702Z,23.07
2019-02-22T14:49:19.278Z,22.46
2019-02-22T14:51:51.118Z,22.46
2019-02-22T14:54:22.594Z,22.48
2019-02-22T14:56:54.514Z,22.20
2019-02-22T14:59:26.141Z,22.20
2019-02-22T15:01:58.008Z,21.18
2019-02-22T15:04:29.597Z,21.18
2019-02-22T15:07:01.342Z,21.02
2019-02-22T15:09:34.164Z,21.25
2019-02-22T15:12:05.793Z,20.99
2019-02-22T15:14:37.454Z,21.14
2019-02-22T15:17:33.724Z,20.97
2019-02-22T15:20:06.261Z,20.97
2019-02-22T15:22:37.795Z,20.99
2019-02-22T15:25:10.702Z,20.99
2019-02-22T15:27:42.684Z,20.99
2019-02-22T15:30:14.717Z,20.99
2019-02-22T15:32:46.503Z,20.92
2019-02-22T15:35:18.412Z,20.84
2019-02-22T15:37:50.289Z,20.71
2019-02-22T15:40:22.219Z,20.68
2019-02-22T15:42:53.586Z,20.68
2019-02-22T15:45:25.700Z,20.68
2019-02-22T15:47:57.454Z,20.64
2019-02-22T15:50:29.289Z,20.64
2019-02-22T15:53:00.958Z,20.55
2019-02-22T15:55:32.957Z,20.55
2019-02-22T15:58:04.436Z,20.50
2019-02-22T16:00:36.284Z,20.56
2019-02-22T16:03:07.971Z,20.37
2019-02-22T16:05:42.328Z,20.25
2019-02-22T16:08:13.993Z,20.51
2019-02-22T16:10:45.696Z,20.37
2019-02-22T16:13:18.191Z,20.13
2019-02-22T16:15:50.057Z,20.12
2019-02-22T16:18:21.871Z,20.05
2019-02-22T16:20:54.129Z,20.16
2019-02-22T16:23:25.585Z,20.12
2019-02-22T16:25:58.219Z,19.94
2019-02-22T16:28:29.751Z,19.73
2019-02-22T16:31:01.442Z,19.83
2019-02-22T16:33:34.166Z,19.83
2019-02-22T16:36:06.110Z,19.78
2019-02-22T16:38:37.698Z,19.63
2019-02-22T16:41:09.548Z,19.68
2019-02-22T16:43:41.136Z,19.58
2019-02-22T16:46:12.515Z,19.60
2019-02-22T16:48:44.018Z,19.60
2019-02-22T16:51:15.877Z,19.58
2019-02-22T16:53:47.519Z,19.59
2019-02-22T16:56:19.459Z,19.45
2019-02-22T16:58:51.160Z,19.45
2019-02-22T17:01:22.574Z,19.50
2019-02-22T17:03:54.163Z,19.52
2019-02-22T17:06:25.825Z,19.30
2019-02-22T17:08:57.380Z,19.30
2019-02-22T17:11:29.197Z,19.46
2019-02-22T17:14:00.699Z,19.41
2019-02-22T17:16:32.474Z,19.55
2019-02-22T17:19:03.923Z,19.43
2019-02-22T17:21:35.871Z,19.43
2019-02-22T17:24:07.414Z,19.35
2019-02-22T17:26:40.315Z,19.35
2019-02-22T17:29:11.668Z,19.30
2019-02-22T17:31:44.991Z,19.38
2019-02-22T17:34:16.767Z,19.23
2019-02-22T17:36:48.256Z,19.35
2019-02-22T17:39:19.844Z,19.25
2019-02-22T17:41:51.580Z,19.25
2019-02-22T17:44:23.283Z,19.23
2019-02-22T17:46:57.845Z,19.29
2019-02-22T17:49:28.817Z,19.29
2019-02-22T17:52:00.372Z,19.24
2019-02-22T17:54:32.353Z,19.05
2019-02-22T17:57:03.973Z,19.25
2019-02-22T17:59:35.779Z,19.08
2019-02-22T18:02:07.508Z,19.01
2019-02-22T18:04:38.970Z,19.01
2019-02-22T18:07:10.602Z,18.89
2019-02-22T18:09:42.621Z,18.90
2019-02-22T18:12:14.381Z,19.23
2019-02-22T18:14:46.061Z,19.17
2019-02-22T18:17:18.004Z,18.99
2019-02-22T18:19:49.720Z,18.84
2019-02-22T18:22:25.883Z,18.84
2019-02-22T18:24:54.471Z,18.67
2019-02-22T18:27:26.091Z,18.70
2019-02-22T18:29:57.746Z,18.70
2019-02-22T18:32:29.194Z,18.56
2019-02-22T18:35:00.925Z,18.61
2019-02-22T18:37:32.563Z,18.76
2019-02-22T18:40:04.370Z,18.72
2019-02-22T18:42:36.033Z,18.72
2019-02-22T18:45:07.988Z,18.47
2019-02-22T18:47:39.750Z,18.64
2019-02-22T18:50:11.604Z,18.68
2019-02-22T18:52:43.408Z,18.68
2019-02-22T18:55:15.204Z,18.70
2019-02-22T18:57:46.671Z,18.52
2019-02-22T19:00:19.888Z,18.59
2019-02-22T19:02:51.784Z,18.50
2019-02-22T19:05:23.269Z,18.50
2019-02-22T19:07:54.712Z,18.47
2019-02-22T19:10:26.548Z,18.47
2019-02-22T19:12:58.020Z,18.37
2019-02-22T19:15:29.540Z,18.34
2019-02-22T19:18:01.207Z,18.28
2019-02-22T19:20:32.872Z,18.28
2019-02-22T19:23:04.346Z,18.22
2019-02-22T19:25:35.939Z,18.12
2019-02-22T19:28:07.734Z,18.06
2019-02-22T19:30:39.035Z,18.06
2019-02-22T19:33:10.393Z,18.23
2019-02-22T19:35:42.299Z,18.23
2019-02-22T19:38:13.951Z,18.04
2019-02-22T19:40:45.652Z,17.98
2019-02-22T19:43:17.153Z,18.00
2019-02-22T19:45:49.916Z,17.93
2019-02-22T19:48:21.381Z,17.93
2019-02-22T19:50:53.176Z,18.05
2019-02-22T19:53:24.735Z,18.02
2019-02-22T19:55:56.697Z,18.01
2019-02-22T19:58:28.325Z,18.06
2019-02-22T20:01:00.037Z,18.00
2019-02-22T20:03:31.686Z,17.89
2019-02-22T20:06:03.437Z,17.89
2019-02-22T20:08:34.989Z,17.73
2019-02-22T20:11:06.829Z,17.80
2019-02-22T20:13:38.739Z,17.37
2019-02-22T20:16:10.576Z,17.37
2019-02-22T20:18:42.950Z,17.93
2019-02-22T20:21:14.441Z,17.97
2019-02-22T20:23:46.272Z,17.72
2019-02-22T20:26:17.627Z,17.60
2019-02-22T20:28:49.432Z,17.77
2019-02-22T20:31:20.961Z,17.77
2019-02-22T20:33:52.654Z,17.55
2019-02-22T20:36:28.359Z,17.58
2019-02-22T20:38:57.479Z,17.58
2019-02-22T20:41:29.120Z,17.60
2019-02-22T20:44:00.864Z,17.53
2019-02-22T20:46:33.210Z,17.51
2019-02-22T20:49:05.232Z,17.51
2019-02-22T20:51:37.241Z,17.58
2019-02-22T20:54:10.153Z,17.47
2019-02-22T20:56:42.146Z,17.60
2019-02-22T20:59:13.811Z,17.49
2019-02-22T21:01:45.573Z,17.67
2019-02-22T21:04:17.151Z,17.17
2019-02-22T21:06:48.628Z,17.19
2019-02-22T21:09:19.979Z,17.04
2019-02-22T21:11:51.574Z,17.04
2019-02-22T21:14:23.271Z,17.19
2019-02-22T21:16:54.748Z,17.19
2019-02-22T21:19:26.462Z,17.12
2019-02-22T21:21:57.978Z,17.29
2019-02-22T21:24:29.542Z,17.16
2019-02-22T21:27:01.028Z,17.16
2019-02-22T21:29:32.599Z,17.17
2019-02-22T21:32:04.448Z,17.05
2019-02-22T21:34:35.964Z,17.05
2019-02-22T21:37:07.576Z,17.23
2019-02-22T21:39:40.119Z,16.83
2019-02-22T21:42:19.880Z,17.06
2019-02-22T21:44:45.322Z,16.69
2019-02-22T21:47:16.869Z,16.69
2019-02-22T21:49:48.734Z,16.94
2019-02-22T21:52:20.305Z,16.84
2019-02-22T21:54:52.140Z,16.84
2019-02-22T21:57:23.543Z,16.84
2019-02-22T21:59:55.193Z,16.72
2019-02-22T22:02:26.688Z,16.81
2019-02-22T22:04:58.331Z,16.66
2019-02-22T22:07:29.717Z,16.79
2019-02-22T22:10:01.363Z,16.78
2019-02-22T22:12:33.138Z,16.58
2019-02-22T22:15:05.001Z,16.54
2019-02-22T22:17:36.735Z,16.54
2019-02-22T22:20:08.539Z,16.44
2019-02-22T22:22:40.210Z,16.57
2019-02-22T22:25:11.956Z,16.54
2019-02-22T22:27:43.785Z,16.68
2019-02-22T22:30:15.384Z,16.50
2019-02-22T22:32:47.133Z,16.50
2019-02-22T22:35:20.942Z,16.26
2019-02-22T22:37:53.107Z,16.24
2019-02-22T22:40:24.536Z,16.56
2019-02-22T22:42:56.427Z,16.42
2019-02-22T22:45:28.203Z,16.42
2019-02-22T22:48:00.248Z,16.27
2019-02-22T22:50:31.852Z,16.27
2019-02-22T22:53:04.743Z,16.05
2019-02-22T22:55:37.131Z,16.05
2019-02-22T22:58:09.354Z,16.16
2019-02-22T23:01:03.289Z,16.16
2019-02-22T23:03:35.997Z,16.03
2019-02-22T23:06:08.709Z,15.95
2019-02-22T23:08:40.206Z,15.95
2019-02-22T23:11:12.364Z,16.10
2019-02-22T23:13:44.116Z,15.99
2019-02-22T23:16:16.117Z,15.97
2019-02-22T23:18:47.833Z,15.99
2019-02-22T23:21:20.717Z,15.99
2019-02-22T23:23:52.189Z,16.07
2019-02-22T23:26:23.688Z,16.07
2019-02-22T23:28:56.053Z,15.91
2019-02-22T23:31:27.886Z,15.91
2019-02-22T23:33:59.344Z,16.05
2019-02-22T23:36:30.820Z,15.62
2019-02-22T23:39:03.651Z,15.62
2019-02-22T23:41:37.045Z,15.81
2019-02-22T23:44:08.783Z,15.91
2019-02-22T23:46:40.298Z,15.83
2019-02-22T23:49:13.314Z,15.83
2019-02-22T23:51:44.898Z,15.80
2019-02-22T23:54:16.624Z,15.80
2019-02-22T23:56:48.244Z,15.67
2019-02-22T23:59:19.861Z,15.72
